Time;durP1;ratioP1;P1;durP2;ratioP2;P2;SDS_P1;SDS_P2;PMS_P1;PMS_P2;Temp;Humidity;BMP_temperature;BMP_pressure;BME280_temperature;BME280_humidity;BME280_pressure;Samples;Min_cycle;Max_cycle;Signal;HPM_P1;HPM_P2
2023/03/13 00:01:02;;;;;;;23.45;5.68;;;;;;;;;;5044204;28;20053;-63
2023/03/13 00:03:28;;;;;;;23.15;4.55;;;;;;;;;;5049433;28;20053;-62
2023/03/13 00:05:57;;;;;;;18.15;4.75;;;;;;;;;;5053222;28;20061;-62
2023/03/13 00:08:24;;;;;;;17.80;4.60;;;;;;;;;;5057948;28;20575;-61
2023/03/13 00:10:50;;;;;;;21.05;5.15;;;;;;;;;;5049354;28;20115;-62
2023/03/13 00:13:17;;;;;;;24.27;4.57;;;;;;;;;;5046055;28;20064;-63
2023/03/13 00:15:43;;;;;;;20.70;4.78;;;;;;;;;;5045029;28;20528;-63
2023/03/13 00:18:09;;;;;;;18.00;4.43;;;;;;;;;;5054211;28;20522;-62
2023/03/13 00:20:36;;;;;;;18.05;4.28;;;;;;;;;;5047801;28;20045;-62
2023/03/13 00:23:02;;;;;;;13.82;4.38;;;;;;;;;;5054845;28;20045;-63
2023/03/13 00:25:28;;;;;;;25.83;4.80;;;;;;;;;;5046911;28;20056;-62
2023/03/13 00:27:55;;;;;;;25.92;4.63;;;;;;;;;;5062730;28;20056;-63
2023/03/13 00:30:21;;;;;;;24.60;4.28;;;;;;;;;;5045263;28;20053;-62
2023/03/13 00:32:47;;;;;;;20.08;5.10;;;;;;;;;;5051289;28;20083;-62
2023/03/13 00:35:15;;;;;;;16.88;4.20;;;;;;;;;;5051743;28;20192;-62
2023/03/13 00:37:41;;;;;;;25.40;4.72;;;;;;;;;;5054013;28;20053;-62
2023/03/13 00:40:08;;;;;;;29.73;6.05;;;;;;;;;;5056667;28;20057;-62
2023/03/13 00:42:35;;;;;;;29.02;5.10;;;;;;;;;;5051020;28;20830;-63
2023/03/13 00:45:01;;;;;;;19.55;4.93;;;;;;;;;;5059646;28;20200;-62
2023/03/13 00:47:28;;;;;;;22.70;5.15;;;;;;;;;;5062099;28;20495;-63
2023/03/13 00:49:54;;;;;;;22.98;4.10;;;;;;;;;;5044116;28;20064;-61
2023/03/13 00:52:20;;;;;;;21.30;5.15;;;;;;;;;;5044833;28;20060;-61
2023/03/13 00:54:47;;;;;;;17.45;6.18;;;;;;;;;;5051688;28;20099;-61
2023/03/13 00:57:13;;;;;;;25.55;5.15;;;;;;;;;;5059651;28;20064;-62
2023/03/13 00:59:39;;;;;;;19.67;5.65;;;;;;;;;;5056654;28;20443;-61
2023/03/13 01:02:06;;;;;;;24.52;5.10;;;;;;;;;;5054161;28;20059;-63
2023/03/13 01:04:32;;;;;;;29.05;5.10;;;;;;;;;;5044030;28;20053;-62
2023/03/13 01:06:58;;;;;;;26.85;5.93;;;;;;;;;;5045370;28;20781;-61
2023/03/13 01:09:25;;;;;;;20.80;5.68;;;;;;;;;;5049886;28;20992;-63
2023/03/13 01:11:51;;;;;;;25.30;5.55;;;;;;;;;;5055977;28;20049;-62
2023/03/13 01:14:18;;;;;;;14.30;5.40;;;;;;;;;;5043709;28;20045;-63
2023/03/13 01:16:45;;;;;;;19.98;5.30;;;;;;;;;;5051553;28;20053;-63
2023/03/13 01:19:13;;;;;;;18.08;5.22;;;;;;;;;;5061719;28;20080;-62
2023/03/13 01:21:41;;;;;;;22.50;5.30;;;;;;;;;;5047892;28;20057;-64
2023/03/13 01:24:07;;;;;;;15.77;5.65;;;;;;;;;;5048799;28;20436;-62
2023/03/13 01:26:33;;;;;;;18.67;5.22;;;;;;;;;;5050551;28;20053;-63
2023/03/13 01:29:00;;;;;;;17.58;4.95;;;;;;;;;;5055713;28;20058;-62
2023/03/13 01:31:27;;;;;;;13.25;4.60;;;;;;;;;;5050287;28;20060;-62
2023/03/13 01:33:55;;;;;;;12.90;5.22;;;;;;;;;;5048394;28;20049;-62
2023/03/13 01:36:21;;;;;;;22.85;4.88;;;;;;;;;;5044155;28;20124;-62
2023/03/13 01:38:49;;;;;;;16.02;4.35;;;;;;;;;;5050353;28;20060;-62
2023/03/13 01:41:15;;;;;;;12.43;4.28;;;;;;;;;;5044249;28;20727;-62
2023/03/13 01:43:42;;;;;;;16.30;4.45;;;;;;;;;;5044906;28;20048;-62
2023/03/13 01:46:16;;;;;;;11.43;4.35;;;;;;;;;;5058348;28;20096;-62
2023/03/13 01:48:50;;;;;;;10.38;3.80;;;;;;;;;;5043706;28;20525;-63
2023/03/13 01:51:31;;;;;;;11.68;4.03;;;;;;;;;;5049459;28;20143;-64
2023/03/13 01:54:01;;;;;;;9.13;4.00;;;;;;;;;;5049863;28;20057;-62
2023/03/13 01:56:32;;;;;;;12.95;4.50;;;;;;;;;;5044391;28;20048;-63
2023/03/13 01:58:58;;;;;;;13.05;4.78;;;;;;;;;;5056579;28;20566;-63
2023/03/13 02:01:25;;;;;;;12.65;4.40;;;;;;;;;;5044820;28;20061;-62
2023/03/13 02:03:52;;;;;;;11.07;4.93;;;;;;;;;;5061999;28;20577;-63
2023/03/13 02:06:18;;;;;;;13.50;4.97;;;;;;;;;;5048840;28;20257;-62
2023/03/13 02:08:49;;;;;;;15.45;4.97;;;;;;;;;;5043536;28;20074;-63
2023/03/13 02:11:23;;;;;;;11.43;5.25;;;;;;;;;;5061693;28;20068;-62
2023/03/13 02:13:50;;;;;;;9.60;5.30;;;;;;;;;;5055880;28;20062;-62
2023/03/13 02:16:17;;;;;;;9.75;4.75;;;;;;;;;;5042856;28;20052;-62
2023/03/13 02:18:44;;;;;;;15.05;6.07;;;;;;;;;;5053520;28;20056;-62
2023/03/13 02:21:15;;;;;;;17.25;7.13;;;;;;;;;;5047969;28;20053;-63
2023/03/13 02:23:47;;;;;;;18.30;7.30;;;;;;;;;;5061516;28;20056;-62
2023/03/13 02:26:13;;;;;;;14.65;6.50;;;;;;;;;;5047307;28;20558;-63
2023/03/13 02:28:39;;;;;;;10.70;6.93;;;;;;;;;;5047426;28;20057;-63
2023/03/13 02:31:07;;;;;;;12.25;7.57;;;;;;;;;;5050745;28;20049;-63
2023/03/13 02:33:35;;;;;;;16.60;7.50;;;;;;;;;;5046240;28;20053;-63
2023/03/13 02:36:02;;;;;;;17.00;7.72;;;;;;;;;;5056654;28;20054;-63
2023/03/13 02:38:29;;;;;;;16.00;7.95;;;;;;;;;;5047521;28;20053;-62
2023/03/13 02:40:56;;;;;;;14.00;7.95;;;;;;;;;;5060119;28;20045;-63
2023/03/13 02:43:23;;;;;;;17.73;8.35;;;;;;;;;;5046039;28;20523;-62
2023/03/13 02:46:03;;;;;;;13.27;6.85;;;;;;;;;;5060130;28;20049;-63
2023/03/13 02:48:31;;;;;;;18.02;8.10;;;;;;;;;;5053880;28;20049;-63
2023/03/13 02:50:59;;;;;;;17.63;9.93;;;;;;;;;;5046540;28;20081;-63
2023/03/13 02:53:26;;;;;;;15.13;8.68;;;;;;;;;;5051949;28;20057;-62
2023/03/13 02:55:52;;;;;;;16.00;7.97;;;;;;;;;;5060767;28;20045;-62
2023/03/13 02:58:18;;;;;;;14.90;8.43;;;;;;;;;;5049640;28;20080;-62
2023/03/13 03:00:45;;;;;;;23.25;11.10;;;;;;;;;;5047689;28;20133;-62
2023/03/13 03:03:11;;;;;;;15.35;9.45;;;;;;;;;;5055634;28;20217;-62
2023/03/13 03:05:37;;;;;;;26.05;12.00;;;;;;;;;;5047110;28;20042;-64
2023/03/13 03:08:04;;;;;;;19.05;10.52;;;;;;;;;;5057809;28;20057;-62
2023/03/13 03:10:30;;;;;;;18.70;11.82;;;;;;;;;;5064698;28;20045;-63
2023/03/13 03:12:56;;;;;;;19.50;10.95;;;;;;;;;;5066115;28;20067;-63
2023/03/13 03:15:23;;;;;;;25.98;12.57;;;;;;;;;;5063540;28;20056;-63
2023/03/13 03:17:49;;;;;;;18.20;11.30;;;;;;;;;;5062463;28;20458;-63
2023/03/13 03:20:15;;;;;;;18.05;11.07;;;;;;;;;;5050614;28;20054;-62
2023/03/13 03:22:42;;;;;;;20.45;10.95;;;;;;;;;;5058434;28;20049;-62
2023/03/13 03:25:08;;;;;;;20.30;11.30;;;;;;;;;;5082387;28;20136;-63
2023/03/13 03:27:37;;;;;;;18.42;9.90;;;;;;;;;;5055857;28;20095;-64
2023/03/13 03:30:04;;;;;;;20.23;11.73;;;;;;;;;;5069027;28;20046;-62
2023/03/13 03:32:30;;;;;;;19.17;10.95;;;;;;;;;;5057386;28;20073;-64
2023/03/13 03:34:57;;;;;;;20.40;10.85;;;;;;;;;;5065587;28;20049;-62
2023/03/13 03:37:23;;;;;;;19.75;10.80;;;;;;;;;;5069369;28;20049;-62
2023/03/13 03:39:49;;;;;;;20.48;11.50;;;;;;;;;;5054478;28;20049;-62
2023/03/13 03:42:16;;;;;;;20.50;11.02;;;;;;;;;;5049223;28;20046;-63
2023/03/13 03:44:42;;;;;;;19.33;11.10;;;;;;;;;;5045876;28;20526;-63
2023/03/13 03:47:08;;;;;;;17.55;10.27;;;;;;;;;;5063262;28;20057;-63
2023/03/13 03:49:35;;;;;;;19.42;10.93;;;;;;;;;;5062539;28;20041;-63
2023/03/13 03:52:01;;;;;;;17.98;9.38;;;;;;;;;;5055596;28;20061;-62
2023/03/13 03:54:28;;;;;;;19.17;8.88;;;;;;;;;;5047313;28;20065;-63
2023/03/13 03:56:54;;;;;;;19.60;10.63;;;;;;;;;;5062000;28;20291;-63
2023/03/13 03:59:20;;;;;;;19.48;9.70;;;;;;;;;;5058470;28;20054;-62
2023/03/13 04:01:47;;;;;;;15.32;9.60;;;;;;;;;;5053115;28;20053;-63
2023/03/13 04:04:13;;;;;;;13.73;8.75;;;;;;;;;;5056772;28;20054;-63
2023/03/13 04:06:39;;;;;;;13.60;9.38;;;;;;;;;;5058589;28;20134;-62
2023/03/13 04:09:06;;;;;;;13.40;9.25;;;;;;;;;;5064545;28;20096;-62
2023/03/13 04:11:32;;;;;;;13.80;9.15;;;;;;;;;;5063438;28;20534;-63
2023/03/13 04:13:58;;;;;;;17.67;9.48;;;;;;;;;;5061045;28;20520;-62
2023/03/13 04:16:25;;;;;;;16.42;7.63;;;;;;;;;;5049771;28;20037;-63
2023/03/13 04:18:51;;;;;;;14.57;8.57;;;;;;;;;;5063510;28;20436;-62
2023/03/13 04:21:18;;;;;;;16.27;8.60;;;;;;;;;;5060808;28;20045;-62
2023/03/13 04:23:44;;;;;;;17.40;8.35;;;;;;;;;;5055257;28;20053;-62
2023/03/13 04:26:10;;;;;;;16.88;8.25;;;;;;;;;;5054867;28;20738;-62
2023/03/13 04:28:36;;;;;;;14.20;8.38;;;;;;;;;;5044931;28;20046;-63
2023/03/13 04:31:03;;;;;;;12.70;7.78;;;;;;;;;;5048807;28;20585;-63
2023/03/13 04:33:29;;;;;;;12.10;8.38;;;;;;;;;;5062968;28;20439;-62
2023/03/13 04:35:56;;;;;;;14.93;8.10;;;;;;;;;;5061003;28;20056;-63
2023/03/13 04:38:22;;;;;;;12.70;7.80;;;;;;;;;;5045885;28;20115;-63
2023/03/13 04:40:48;;;;;;;14.43;7.53;;;;;;;;;;5054243;28;20053;-62
2023/03/13 04:43:15;;;;;;;16.13;7.60;;;;;;;;;;5055576;28;20173;-62
2023/03/13 04:45:41;;;;;;;13.02;8.57;;;;;;;;;;5056945;28;20053;-62
2023/03/13 04:48:07;;;;;;;16.70;8.55;;;;;;;;;;5063393;28;20061;-62
2023/03/13 04:50:34;;;;;;;11.02;8.32;;;;;;;;;;5060971;28;20079;-62
2023/03/13 04:53:00;;;;;;;9.40;8.05;;;;;;;;;;5045454;28;20061;-62
2023/03/13 04:55:27;;;;;;;13.80;8.00;;;;;;;;;;5045358;28;20108;-63
2023/03/13 04:57:53;;;;;;;10.88;7.40;;;;;;;;;;5046661;28;20064;-63
2023/03/13 05:00:19;;;;;;;17.73;7.22;;;;;;;;;;5046169;28;20046;-63
2023/03/13 05:02:46;;;;;;;10.43;6.63;;;;;;;;;;5054008;28;20063;-62
2023/03/13 05:05:12;;;;;;;12.85;6.93;;;;;;;;;;5048542;28;20447;-62
2023/03/13 05:07:38;;;;;;;10.00;6.53;;;;;;;;;;5044522;28;20049;-63
2023/03/13 05:10:05;;;;;;;11.93;5.70;;;;;;;;;;5044876;28;20557;-63
2023/03/13 05:12:32;;;;;;;8.55;5.88;;;;;;;;;;5049993;28;20096;-62
2023/03/13 05:14:58;;;;;;;8.70;5.57;;;;;;;;;;5049249;28;20478;-63
2023/03/13 05:17:24;;;;;;;14.32;6.72;;;;;;;;;;5060658;28;20140;-62
2023/03/13 05:19:51;;;;;;;8.85;4.88;;;;;;;;;;5056261;28;20053;-63
2023/03/13 05:22:17;;;;;;;9.57;5.32;;;;;;;;;;5063812;28;20540;-62
2023/03/13 05:24:43;;;;;;;11.10;5.85;;;;;;;;;;5054784;28;20069;-62
2023/03/13 05:27:09;;;;;;;11.57;4.55;;;;;;;;;;5059914;28;20137;-63
2023/03/13 05:29:36;;;;;;;9.60;4.40;;;;;;;;;;5063335;28;20053;-62
2023/03/13 05:32:02;;;;;;;10.65;4.90;;;;;;;;;;5054362;28;20056;-62
2023/03/13 05:34:28;;;;;;;9.98;5.05;;;;;;;;;;5063950;28;20072;-62
2023/03/13 05:36:55;;;;;;;11.77;4.57;;;;;;;;;;5061517;28;20080;-62
2023/03/13 05:39:21;;;;;;;12.70;4.38;;;;;;;;;;5064140;28;20658;-62
2023/03/13 05:41:48;;;;;;;10.00;4.22;;;;;;;;;;5061733;28;20084;-62
2023/03/13 05:44:14;;;;;;;7.93;4.18;;;;;;;;;;5052019;28;20055;-62
2023/03/13 05:46:40;;;;;;;7.18;3.92;;;;;;;;;;5053579;28;20053;-62
2023/03/13 05:49:07;;;;;;;10.82;3.92;;;;;;;;;;5063203;28;20103;-63
2023/03/13 05:51:33;;;;;;;10.52;3.85;;;;;;;;;;5057463;28;20055;-62
2023/03/13 05:53:59;;;;;;;12.55;3.35;;;;;;;;;;5059654;28;20045;-63
2023/03/13 05:56:26;;;;;;;8.48;3.00;;;;;;;;;;5047088;28;20081;-64
2023/03/13 05:58:52;;;;;;;6.45;2.85;;;;;;;;;;5047868;28;20055;-64
2023/03/13 06:01:18;;;;;;;6.75;3.25;;;;;;;;;;5067971;28;20049;-62
2023/03/13 06:03:45;;;;;;;9.52;4.03;;;;;;;;;;5067976;28;20152;-63
2023/03/13 06:06:11;;;;;;;15.00;4.10;;;;;;;;;;5067900;28;20143;-62
2023/03/13 06:08:37;;;;;;;6.50;3.05;;;;;;;;;;5067754;28;20527;-62
2023/03/13 06:11:04;;;;;;;7.43;2.95;;;;;;;;;;5067391;28;20447;-63
2023/03/13 06:13:30;;;;;;;15.45;3.40;;;;;;;;;;5067530;28;20053;-62
2023/03/13 06:15:57;;;;;;;6.72;3.00;;;;;;;;;;5082323;28;20537;-62
2023/03/13 06:18:24;;;;;;;9.30;3.38;;;;;;;;;;5088523;28;20052;-63
2023/03/13 06:20:54;;;;;;;10.18;3.28;;;;;;;;;;5087912;28;20053;-63
2023/03/13 06:23:21;;;;;;;8.57;4.43;;;;;;;;;;5087553;28;20110;-63
2023/03/13 06:25:47;;;;;;;9.93;3.53;;;;;;;;;;5088324;28;21075;-62
2023/03/13 06:28:14;;;;;;;10.98;3.60;;;;;;;;;;5088002;28;20135;-63
2023/03/13 06:30:40;;;;;;;6.72;2.92;;;;;;;;;;5085706;28;20055;-62
2023/03/13 06:33:06;;;;;;;8.48;3.72;;;;;;;;;;5080259;28;20054;-62
2023/03/13 06:35:33;;;;;;;5.47;3.67;;;;;;;;;;5048586;28;20056;-62
2023/03/13 06:38:18;;;;;;;9.27;3.35;;;;;;;;;;5047043;28;20058;-62
2023/03/13 06:40:45;;;;;;;5.53;2.85;;;;;;;;;;5054335;28;20041;-63
2023/03/13 06:43:13;;;;;;;9.82;3.67;;;;;;;;;;5050509;28;20041;-61
2023/03/13 06:45:39;;;;;;;8.73;3.67;;;;;;;;;;5054588;28;20057;-63
2023/03/13 06:48:05;;;;;;;6.63;2.92;;;;;;;;;;5068374;28;20076;-64
2023/03/13 06:50:32;;;;;;;12.27;3.97;;;;;;;;;;5074316;28;20067;-64
2023/03/13 06:52:58;;;;;;;15.90;5.13;;;;;;;;;;5080283;28;20164;-64
2023/03/13 06:55:25;;;;;;;9.32;3.35;;;;;;;;;;5085033;28;20059;-64
2023/03/13 06:57:51;;;;;;;6.43;2.60;;;;;;;;;;5077336;28;20076;-63
2023/03/13 07:00:18;;;;;;;9.38;2.80;;;;;;;;;;5062986;28;20522;-64
2023/03/13 07:02:45;;;;;;;8.85;3.35;;;;;;;;;;5062156;28;20058;-64
2023/03/13 07:05:13;;;;;;;5.57;2.85;;;;;;;;;;5061823;28;20049;-64
2023/03/13 07:07:40;;;;;;;8.43;3.03;;;;;;;;;;5055330;28;20144;-63
2023/03/13 07:10:07;;;;;;;9.65;3.40;;;;;;;;;;5050524;28;20053;-62
2023/03/13 07:12:34;;;;;;;9.38;3.50;;;;;;;;;;5054083;28;20640;-62
2023/03/13 07:15:00;;;;;;;10.57;3.05;;;;;;;;;;5051684;28;20140;-62
2023/03/13 07:17:27;;;;;;;4.70;3.60;;;;;;;;;;5055725;28;20056;-62
2023/03/13 07:19:53;;;;;;;10.70;3.40;;;;;;;;;;5053567;28;20688;-62
2023/03/13 07:22:20;;;;;;;6.03;3.40;;;;;;;;;;5068827;28;20053;-63
2023/03/13 07:24:47;;;;;;;7.85;2.92;;;;;;;;;;5066781;28;20132;-62
2023/03/13 07:27:16;;;;;;;12.23;5.70;;;;;;;;;;5051508;28;20084;-63
2023/03/13 07:29:43;;;;;;;10.45;3.53;;;;;;;;;;5049850;28;20660;-62
2023/03/13 07:32:09;;;;;;;10.35;4.13;;;;;;;;;;5059882;28;20100;-62
2023/03/13 07:34:36;;;;;;;15.25;3.90;;;;;;;;;;5058717;28;20052;-62
2023/03/13 07:37:02;;;;;;;8.18;3.50;;;;;;;;;;5070894;28;20053;-64
2023/03/13 07:39:28;;;;;;;4.70;2.83;;;;;;;;;;5061189;28;20126;-62
2023/03/13 07:41:55;;;;;;;10.32;3.50;;;;;;;;;;5062607;28;20073;-63
2023/03/13 07:44:21;;;;;;;7.07;3.17;;;;;;;;;;5055215;28;20127;-62
2023/03/13 07:46:48;;;;;;;9.45;3.85;;;;;;;;;;5044524;28;20435;-63
2023/03/13 07:49:15;;;;;;;6.88;3.60;;;;;;;;;;5048924;28;21146;-62
2023/03/13 07:51:41;;;;;;;12.43;4.18;;;;;;;;;;5065141;28;20107;-63
2023/03/13 07:54:09;;;;;;;9.77;4.47;;;;;;;;;;5060308;28;20049;-63
2023/03/13 07:56:37;;;;;;;10.27;3.90;;;;;;;;;;5063446;28;20106;-63
2023/03/13 07:59:03;;;;;;;9.95;3.45;;;;;;;;;;5067550;28;20151;-64
2023/03/13 08:01:30;;;;;;;4.70;3.70;;;;;;;;;;5057884;28;20052;-62
2023/03/13 08:04:00;;;;;;;10.20;3.95;;;;;;;;;;5053493;28;20154;-62
2023/03/13 08:06:29;;;;;;;5.57;3.38;;;;;;;;;;5062804;28;20057;-62
2023/03/13 08:08:58;;;;;;;6.25;3.28;;;;;;;;;;5060380;28;20045;-62
2023/03/13 08:11:26;;;;;;;10.30;3.75;;;;;;;;;;5064975;28;20115;-63
2023/03/13 08:13:52;;;;;;;7.75;3.05;;;;;;;;;;5062492;28;20529;-63
2023/03/13 08:16:20;;;;;;;7.20;3.35;;;;;;;;;;5053964;28;20052;-61
2023/03/13 08:18:48;;;;;;;10.25;3.00;;;;;;;;;;5058485;28;20056;-61
2023/03/13 08:21:16;;;;;;;8.65;2.92;;;;;;;;;;5061953;28;20057;-62
2023/03/13 08:23:42;;;;;;;6.13;2.72;;;;;;;;;;5063773;28;20057;-63
2023/03/13 08:26:16;;;;;;;7.22;2.67;;;;;;;;;;5066825;28;20065;-61
2023/03/13 08:28:44;;;;;;;5.53;2.83;;;;;;;;;;5060547;28;20701;-62
2023/03/13 08:31:11;;;;;;;5.45;3.08;;;;;;;;;;5047903;28;20522;-62
2023/03/13 08:33:38;;;;;;;5.70;3.50;;;;;;;;;;5061726;28;20084;-62
2023/03/13 08:36:10;;;;;;;7.97;3.25;;;;;;;;;;5060458;28;20053;-62
2023/03/13 08:38:37;;;;;;;4.40;3.15;;;;;;;;;;5060128;28;20061;-63
2023/03/13 08:41:03;;;;;;;5.35;3.33;;;;;;;;;;5059430;28;20092;-62
2023/03/13 08:43:29;;;;;;;8.68;3.25;;;;;;;;;;5061992;28;20055;-62
2023/03/13 08:45:56;;;;;;;6.18;3.10;;;;;;;;;;5061647;28;20053;-62
2023/03/13 08:48:22;;;;;;;5.35;3.20;;;;;;;;;;5067232;28;20064;-62
2023/03/13 08:50:58;;;;;;;8.65;3.35;;;;;;;;;;5059972;28;20115;-61
2023/03/13 08:53:25;;;;;;;7.28;3.30;;;;;;;;;;5061167;28;20059;-62
2023/03/13 08:55:52;;;;;;;8.68;3.55;;;;;;;;;;5071085;28;20052;-63
2023/03/13 08:58:18;;;;;;;6.40;2.90;;;;;;;;;;5060689;28;20941;-63
2023/03/13 09:00:45;;;;;;;10.00;3.95;;;;;;;;;;5070722;28;20475;-63
2023/03/13 09:03:11;;;;;;;8.05;2.85;;;;;;;;;;5067237;28;20056;-62
2023/03/13 09:05:38;;;;;;;9.25;3.63;;;;;;;;;;5052617;28;20056;-61
2023/03/13 09:08:21;;;;;;;7.72;2.95;;;;;;;;;;5066610;28;20048;-62
2023/03/13 09:10:47;;;;;;;5.18;2.60;;;;;;;;;;5060421;28;20072;-61
2023/03/13 09:13:13;;;;;;;10.57;2.88;;;;;;;;;;5059748;28;20053;-61
2023/03/13 09:15:40;;;;;;;9.63;2.88;;;;;;;;;;5073072;28;20530;-62
2023/03/13 09:18:06;;;;;;;13.15;2.60;;;;;;;;;;5060609;28;20049;-61
2023/03/13 09:20:32;;;;;;;4.97;2.50;;;;;;;;;;5059104;28;20057;-62
2023/03/13 09:22:59;;;;;;;7.93;2.40;;;;;;;;;;5059021;28;20201;-63
2023/03/13 09:25:25;;;;;;;6.97;2.13;;;;;;;;;;5068795;28;20048;-63
2023/03/13 09:27:51;;;;;;;5.55;2.53;;;;;;;;;;5072520;28;20499;-63
2023/03/13 09:30:18;;;;;;;7.10;2.63;;;;;;;;;;5081844;28;20428;-63
2023/03/13 09:32:44;;;;;;;4.22;2.83;;;;;;;;;;5057591;28;20059;-62
2023/03/13 09:35:11;;;;;;;7.53;2.35;;;;;;;;;;5055449;28;20041;-63
2023/03/13 09:37:37;;;;;;;7.07;2.40;;;;;;;;;;5051426;28;20620;-62
2023/03/13 09:40:04;;;;;;;5.25;2.38;;;;;;;;;;5079735;28;20040;-63
2023/03/13 09:42:45;;;;;;;6.30;1.85;;;;;;;;;;5066680;28;20077;-62
2023/03/13 09:45:14;;;;;;;5.53;1.98;;;;;;;;;;5073346;28;20056;-62
2023/03/13 09:47:43;;;;;;;2.92;1.88;;;;;;;;;;5056500;28;20132;-63
2023/03/13 09:50:14;;;;;;;4.60;1.98;;;;;;;;;;5059689;28;20615;-64
2023/03/13 09:52:41;;;;;;;5.43;2.00;;;;;;;;;;5060215;28;20499;-63
2023/03/13 09:55:19;;;;;;;7.90;2.60;;;;;;;;;;5063552;28;20087;-63
2023/03/13 09:57:46;;;;;;;3.85;1.90;;;;;;;;;;5064313;28;20814;-63
2023/03/13 10:00:23;;;;;;;6.25;1.60;;;;;;;;;;5064177;28;21082;-64
2023/03/13 10:03:10;;;;;;;3.95;1.73;;;;;;;;;;5059097;28;20053;-64
2023/03/13 10:05:38;;;;;;;5.40;1.77;;;;;;;;;;5043245;28;20620;-63
2023/03/13 10:08:11;;;;;;;3.53;1.20;;;;;;;;;;5065245;28;20136;-64
2023/03/13 10:10:38;;;;;;;8.48;1.75;;;;;;;;;;5064721;28;20468;-64
2023/03/13 10:13:11;;;;;;;2.60;1.25;;;;;;;;;;5063972;28;20049;-63
2023/03/13 10:15:42;;;;;;;4.55;1.50;;;;;;;;;;5059596;28;20081;-62
2023/03/13 10:18:16;;;;;;;7.75;1.50;;;;;;;;;;5065370;28;20138;-63
2023/03/13 10:20:44;;;;;;;5.22;1.20;;;;;;;;;;5053528;28;20863;-63
2023/03/13 10:23:37;;;;;;;1.80;1.00;;;;;;;;;;5060154;28;20101;-63
2023/03/13 10:26:03;;;;;;;5.03;1.30;;;;;;;;;;5061101;28;20757;-64
2023/03/13 10:28:29;;;;;;;2.75;1.05;;;;;;;;;;5063144;28;20057;-64
2023/03/13 10:31:08;;;;;;;6.07;1.63;;;;;;;;;;5062382;28;20049;-63
2023/03/13 10:33:35;;;;;;;1.83;1.10;;;;;;;;;;5045403;28;20056;-63
2023/03/13 10:36:04;;;;;;;5.15;1.38;;;;;;;;;;5046303;28;20449;-63
2023/03/13 10:38:32;;;;;;;2.97;1.30;;;;;;;;;;5059542;28;20076;-62
2023/03/13 10:41:19;;;;;;;3.33;1.40;;;;;;;;;;5052455;28;20057;-63
2023/03/13 10:43:49;;;;;;;3.65;1.38;;;;;;;;;;5056304;28;20159;-63
2023/03/13 10:46:22;;;;;;;7.07;1.60;;;;;;;;;;5060338;28;20426;-64
2023/03/13 10:48:52;;;;;;;2.20;1.35;;;;;;;;;;5061043;28;20050;-64
2023/03/13 10:51:23;;;;;;;3.35;1.10;;;;;;;;;;5059056;28;20069;-63
2023/03/13 10:53:50;;;;;;;4.05;1.20;;;;;;;;;;5062688;28;20514;-63
2023/03/13 10:56:24;;;;;;;9.07;3.75;;;;;;;;;;5056587;28;20136;-64
2023/03/13 10:58:51;;;;;;;5.25;1.40;;;;;;;;;;5053755;28;20563;-62
2023/03/13 11:01:23;;;;;;;8.27;2.15;;;;;;;;;;5076145;28;20057;-63
2023/03/13 11:03:50;;;;;;;5.10;1.90;;;;;;;;;;5072007;28;20056;-63
2023/03/13 11:06:26;;;;;;;9.40;1.80;;;;;;;;;;5056343;28;20057;-63
2023/03/13 11:08:59;;;;;;;4.78;1.48;;;;;;;;;;5065001;28;20132;-62
2023/03/13 11:11:29;;;;;;;3.08;1.30;;;;;;;;;;5065083;28;20049;-62
2023/03/13 11:14:12;;;;;;;4.13;1.63;;;;;;;;;;5063315;28;20056;-63
2023/03/13 11:16:45;;;;;;;5.68;1.35;;;;;;;;;;5071952;28;20484;-63
2023/03/13 11:19:11;;;;;;;4.22;1.40;;;;;;;;;;5070757;28;20055;-63
2023/03/13 11:21:38;;;;;;;4.03;1.75;;;;;;;;;;5072355;28;20061;-63
2023/03/13 11:24:24;;;;;;;8.55;1.80;;;;;;;;;;5077910;28;20053;-62
2023/03/13 11:26:58;;;;;;;5.45;1.13;;;;;;;;;;5075786;28;20132;-63
2023/03/13 11:29:36;;;;;;;4.50;1.70;;;;;;;;;;5067640;28;20045;-62
2023/03/13 11:32:08;;;;;;;7.22;1.60;;;;;;;;;;5062536;28;20056;-63
2023/03/13 11:34:46;;;;;;;4.75;1.50;;;;;;;;;;5068698;28;20064;-63
2023/03/13 11:37:14;;;;;;;4.85;1.55;;;;;;;;;;5072600;28;20049;-63
2023/03/13 11:39:51;;;;;;;4.95;1.35;;;;;;;;;;5061655;28;20045;-63
2023/03/13 11:42:38;;;;;;;7.45;1.40;;;;;;;;;;5073351;28;20060;-64
2023/03/13 11:45:04;;;;;;;4.53;1.05;;;;;;;;;;5071882;28;20045;-63
2023/03/13 11:47:31;;;;;;;2.42;1.33;;;;;;;;;;5061915;28;20049;-63
2023/03/13 11:50:00;;;;;;;4.38;1.30;;;;;;;;;;5070896;28;20045;-62
2023/03/13 11:52:39;;;;;;;4.55;1.30;;;;;;;;;;5076658;28;20477;-62
2023/03/13 11:55:08;;;;;;;3.95;1.15;;;;;;;;;;5066135;28;20123;-63
2023/03/13 11:57:54;;;;;;;4.95;1.00;;;;;;;;;;5074530;28;20059;-63
2023/03/13 12:00:21;;;;;;;3.42;1.08;;;;;;;;;;5075148;28;20049;-63
2023/03/13 12:02:55;;;;;;;5.78;1.20;;;;;;;;;;5068284;28;20065;-63
2023/03/13 12:05:22;;;;;;;4.43;1.38;;;;;;;;;;5065890;28;20045;-63
2023/03/13 12:07:57;;;;;;;2.38;1.10;;;;;;;;;;5061536;28;20069;-62
2023/03/13 12:10:30;;;;;;;3.28;1.25;;;;;;;;;;5060616;28;20056;-63
2023/03/13 12:13:06;;;;;;;2.35;1.23;;;;;;;;;;5059429;28;20519;-63
2023/03/13 12:15:37;;;;;;;4.63;1.30;;;;;;;;;;5060817;28;20133;-63
2023/03/13 12:18:12;;;;;;;4.95;1.20;;;;;;;;;;5061434;28;20049;-62
2023/03/13 12:20:39;;;;;;;;;;;;;;;;;;5055691;28;20172;-63
2023/03/13 12:23:15;;;;;;;3.83;1.27;;;;;;;;;;5069525;28;45974;-63
2023/03/13 12:25:44;;;;;;;3.38;1.60;;;;;;;;;;5066773;28;20053;-63
2023/03/13 12:28:22;;;;;;;4.07;1.40;;;;;;;;;;5060435;28;20053;-62
2023/03/13 12:30:55;;;;;;;4.90;1.50;;;;;;;;;;5064636;28;20706;-63
2023/03/13 12:33:28;;;;;;;5.30;1.80;;;;;;;;;;5061524;28;20049;-63
2023/03/13 12:36:11;;;;;;;7.70;1.90;;;;;;;;;;5072886;28;20060;-63
2023/03/13 12:38:37;;;;;;;3.67;1.20;;;;;;;;;;5056751;28;20060;-63
2023/03/13 12:41:03;;;;;;;3.50;1.33;;;;;;;;;;5068408;28;20073;-63
2023/03/13 12:43:31;;;;;;;6.55;1.50;;;;;;;;;;5061462;28;20602;-62
2023/03/13 12:45:57;;;;;;;5.22;1.90;;;;;;;;;;5060992;28;20060;-62
2023/03/13 12:48:36;;;;;;;5.93;1.75;;;;;;;;;;5061339;28;20049;-63
2023/03/13 12:51:02;;;;;;;7.43;1.58;;;;;;;;;;5071967;28;20053;-63
2023/03/13 12:53:47;;;;;;;11.95;1.75;;;;;;;;;;5064684;28;20146;-63
2023/03/13 12:56:17;;;;;;;9.60;2.15;;;;;;;;;;5060595;28;20180;-63
2023/03/13 12:58:48;;;;;;;7.38;1.70;;;;;;;;;;5056651;28;20060;-62
2023/03/13 13:01:35;;;;;;;5.10;1.50;;;;;;;;;;5053455;28;20054;-63
2023/03/13 13:04:10;;;;;;;3.72;1.33;;;;;;;;;;5056093;28;20060;-64
2023/03/13 13:06:37;;;;;;;;;;;;;;;;;;5058139;28;20049;-63
2023/03/13 13:09:13;;;;;;;7.07;1.92;;;;;;;;;;5064139;28;44723;-62
2023/03/13 13:11:44;;;;;;;3.20;1.48;;;;;;;;;;5054436;28;20484;-63
2023/03/13 13:14:10;;;;;;;5.38;1.77;;;;;;;;;;5059394;28;20132;-63
2023/03/13 13:16:41;;;;;;;8.63;2.03;;;;;;;;;;5060710;28;20430;-63
2023/03/13 13:19:22;;;;;;;13.60;2.40;;;;;;;;;;5048956;28;20246;-63
2023/03/13 13:22:08;;;;;;;9.98;1.98;;;;;;;;;;5044762;28;20064;-64
2023/03/13 13:24:48;;;;;;;6.60;2.22;;;;;;;;;;5044511;28;20065;-64
2023/03/13 13:27:33;;;;;;;9.23;2.45;;;;;;;;;;5057406;28;20174;-63
2023/03/13 13:30:00;;;;;;;8.45;2.28;;;;;;;;;;5056667;28;20058;-63
2023/03/13 13:32:31;;;;;;;10.00;3.42;;;;;;;;;;5043334;28;20056;-63
2023/03/13 13:35:17;;;;;;;7.07;1.80;;;;;;;;;;5052996;28;20107;-64
2023/03/13 13:37:44;;;;;;;10.27;2.45;;;;;;;;;;5044977;28;20053;-65
2023/03/13 13:40:22;;;;;;;8.25;1.92;;;;;;;;;;5064224;28;20332;-64
2023/03/13 13:42:51;;;;;;;12.70;2.42;;;;;;;;;;5068271;28;20053;-64
2023/03/13 13:45:24;;;;;;;11.85;2.97;;;;;;;;;;5059130;28;20401;-63
2023/03/13 13:48:11;;;;;;;9.02;2.08;;;;;;;;;;5049990;28;20863;-63
2023/03/13 13:50:37;;;;;;;11.35;2.53;;;;;;;;;;5063885;28;20063;-63
2023/03/13 13:53:27;;;;;;;14.88;2.42;;;;;;;;;;5057654;28;20057;-63
2023/03/13 13:55:57;;;;;;;14.15;2.92;;;;;;;;;;5057946;28;20540;-64
2023/03/13 13:58:26;;;;;;;10.45;2.08;;;;;;;;;;5057808;28;20049;-64
2023/03/13 14:00:58;;;;;;;11.93;3.17;;;;;;;;;;5067629;28;20578;-62
2023/03/13 14:03:26;;;;;;;11.02;2.30;;;;;;;;;;5062783;28;20057;-62
2023/03/13 14:06:00;;;;;;;9.07;2.47;;;;;;;;;;5060555;28;20068;-63
2023/03/13 14:08:31;;;;;;;8.95;2.30;;;;;;;;;;5058819;28;20470;-62
2023/03/13 14:11:13;;;;;;;19.55;3.47;;;;;;;;;;5057813;28;20057;-63
2023/03/13 14:13:40;;;;;;;17.65;2.53;;;;;;;;;;5058566;28;20136;-64
2023/03/13 14:16:33;;;;;;;9.93;2.83;;;;;;;;;;5060185;28;20128;-62
2023/03/13 14:18:59;;;;;;;9.40;2.78;;;;;;;;;;5057249;28;20505;-62
2023/03/13 14:21:26;;;;;;;10.85;2.70;;;;;;;;;;5069115;28;20180;-63
2023/03/13 14:23:53;;;;;;;13.45;2.55;;;;;;;;;;5072186;28;20053;-62
2023/03/13 14:26:20;;;;;;;11.25;2.90;;;;;;;;;;5061799;28;20570;-63
2023/03/13 14:28:52;;;;;;;13.63;3.53;;;;;;;;;;5058700;28;20590;-64
2023/03/13 14:31:24;;;;;;;12.02;2.22;;;;;;;;;;5062384;28;20124;-63
2023/03/13 14:33:51;;;;;;;12.15;2.85;;;;;;;;;;5058472;28;20742;-63
2023/03/13 14:36:18;;;;;;;16.00;3.38;;;;;;;;;;5058880;28;20049;-63
2023/03/13 14:38:55;;;;;;;15.50;2.67;;;;;;;;;;5060838;28;20059;-62
2023/03/13 14:41:30;;;;;;;12.65;2.88;;;;;;;;;;5063781;28;20490;-64
2023/03/13 14:44:01;;;;;;;17.08;3.75;;;;;;;;;;5059530;28;20547;-64
2023/03/13 14:46:32;;;;;;;13.77;3.90;;;;;;;;;;5062546;28;20099;-64